sensor_id;sensor_type;location;lat;lon;timestamp;temperature;humidity
20242;DHT22;10279;46.388;8.116;2024-01-11T00:02:05;2.60;99.90
20242;DHT22;10279;46.388;8.116;2024-01-11T00:04:32;2.60;99.90
20242;DHT22;10279;46.388;8.116;2024-01-11T00:07:00;2.60;99.90
20242;DHT22;10279;46.388;8.116;2024-01-11T00:09:27;2.60;99.90
20242;DHT22;10279;46.388;8.116;2024-01-11T00:11:54;2.60;99.90
20242;DHT22;10279;46.388;8.116;2024-01-11T00:14:21;2.60;99.90
20242;DHT22;10279;46.388;8.116;2024-01-11T00:16:48;2.60;99.90
20242;DHT22;10279;46.388;8.116;2024-01-11T00:19:15;2.50;99.90
20242;DHT22;10279;46.388;8.116;2024-01-11T00:21:43;2.60;99.90
20242;DHT22;10279;46.388;8.116;2024-01-11T00:24:10;2.50;99.90
20242;DHT22;10279;46.388;8.116;2024-01-11T00:26:37;2.50;99.90
20242;DHT22;10279;46.388;8.116;2024-01-11T00:29:04;2.40;99.90
20242;DHT22;10279;46.388;8.116;2024-01-11T00:31:31;2.40;99.90
20242;DHT22;10279;46.388;8.116;2024-01-11T00:33:59;2.40;99.90
20242;DHT22;10279;46.388;8.116;2024-01-11T00:36:26;2.40;99.90
20242;DHT22;10279;46.388;8.116;2024-01-11T00:38:55;2.40;99.90
20242;DHT22;10279;46.388;8.116;2024-01-11T00:41:22;2.40;99.90
20242;DHT22;10279;46.388;8.116;2024-01-11T00:43:49;2.40;99.90
20242;DHT22;10279;46.388;8.116;2024-01-11T00:46:17;2.40;99.90
20242;DHT22;10279;46.388;8.116;2024-01-11T00:48:44;2.40;99.90
20242;DHT22;10279;46.388;8.116;2024-01-11T00:51:11;2.40;99.90
20242;DHT22;10279;46.388;8.116;2024-01-11T00:53:38;2.40;99.90
20242;DHT22;10279;46.388;8.116;2024-01-11T00:56:06;2.40;99.90
20242;DHT22;10279;46.388;8.116;2024-01-11T00:58:41;2.40;99.90
20242;DHT22;10279;46.388;8.116;2024-01-11T01:01:09;2.40;99.90
20242;DHT22;10279;46.388;8.116;2024-01-11T01:03:37;2.50;99.90
20242;DHT22;10279;46.388;8.116;2024-01-11T01:06:04;2.50;99.90
20242;DHT22;10279;46.388;8.116;2024-01-11T01:08:31;2.50;99.90
20242;DHT22;10279;46.388;8.116;2024-01-11T01:10:59;2.50;99.90
20242;DHT22;10279;46.388;8.116;2024-01-11T01:13:26;2.40;99.90
20242;DHT22;10279;46.388;8.116;2024-01-11T01:15:54;2.40;99.90
20242;DHT22;10279;46.388;8.116;2024-01-11T01:18:21;2.40;99.90
20242;DHT22;10279;46.388;8.116;2024-01-11T01:20:48;2.40;99.90
20242;DHT22;10279;46.388;8.116;2024-01-11T01:23:15;2.50;99.90
20242;DHT22;10279;46.388;8.116;2024-01-11T01:25:43;2.50;99.90
20242;DHT22;10279;46.388;8.116;2024-01-11T01:28:11;2.50;99.90
20242;DHT22;10279;46.388;8.116;2024-01-11T01:30:38;2.50;99.90
20242;DHT22;10279;46.388;8.116;2024-01-11T01:33:05;2.40;99.90
20242;DHT22;10279;46.388;8.116;2024-01-11T01:35:32;2.40;99.90
20242;DHT22;10279;46.388;8.116;2024-01-11T01:38:01;2.40;99.90
20242;DHT22;10279;46.388;8.116;2024-01-11T01:40:30;2.40;99.90
20242;DHT22;10279;46.388;8.116;2024-01-11T01:42:59;2.50;99.90
20242;DHT22;10279;46.388;8.116;2024-01-11T01:45:29;2.50;99.90
20242;DHT22;10279;46.388;8.116;2024-01-11T01:47:56;2.50;99.90
20242;DHT22;10279;46.388;8.116;2024-01-11T01:50:23;2.50;99.90
20242;DHT22;10279;46.388;8.116;2024-01-11T01:52:51;2.50;99.90
20242;DHT22;10279;46.388;8.116;2024-01-11T01:55:19;2.50;99.90
20242;DHT22;10279;46.388;8.116;2024-01-11T01:57:48;2.50;99.90
20242;DHT22;10279;46.388;8.116;2024-01-11T02:00:16;2.40;99.90
20242;DHT22;10279;46.388;8.116;2024-01-11T02:02:44;2.50;99.90
20242;DHT22;10279;46.388;8.116;2024-01-11T02:05:14;2.50;99.90
20242;DHT22;10279;46.388;8.116;2024-01-11T02:07:45;2.50;99.90
20242;DHT22;10279;46.388;8.116;2024-01-11T02:10:12;2.40;99.90
20242;DHT22;10279;46.388;8.116;2024-01-11T02:12:39;2.40;99.90
20242;DHT22;10279;46.388;8.116;2024-01-11T02:15:08;2.40;99.90
20242;DHT22;10279;46.388;8.116;2024-01-11T02:17:35;2.40;99.90
20242;DHT22;10279;46.388;8.116;2024-01-11T02:20:02;2.40;99.90
20242;DHT22;10279;46.388;8.116;2024-01-11T02:22:40;2.40;99.90
20242;DHT22;10279;46.388;8.116;2024-01-11T02:25:08;2.50;99.90
20242;DHT22;10279;46.388;8.116;2024-01-11T02:27:48;2.50;99.90
20242;DHT22;10279;46.388;8.116;2024-01-11T02:30:16;2.50;99.90
20242;DHT22;10279;46.388;8.116;2024-01-11T02:32:44;2.50;99.90
20242;DHT22;10279;46.388;8.116;2024-01-11T02:35:16;2.50;99.90
20242;DHT22;10279;46.388;8.116;2024-01-11T02:37:43;2.50;99.90
20242;DHT22;10279;46.388;8.116;2024-01-11T02:40:13;2.60;99.90
20242;DHT22;10279;46.388;8.116;2024-01-11T02:42:41;2.60;99.90
20242;DHT22;10279;46.388;8.116;2024-01-11T02:45:11;2.60;99.90
20242;DHT22;10279;46.388;8.116;2024-01-11T02:47:39;2.60;99.90
20242;DHT22;10279;46.388;8.116;2024-01-11T02:50:07;2.50;99.90
20242;DHT22;10279;46.388;8.116;2024-01-11T02:52:35;2.50;99.90
20242;DHT22;10279;46.388;8.116;2024-01-11T02:55:02;2.50;99.90
20242;DHT22;10279;46.388;8.116;2024-01-11T02:57:29;2.40;99.90
20242;DHT22;10279;46.388;8.116;2024-01-11T02:59:56;2.40;99.90
20242;DHT22;10279;46.388;8.116;2024-01-11T03:02:24;2.40;99.90
20242;DHT22;10279;46.388;8.116;2024-01-11T03:04:51;2.40;99.90
20242;DHT22;10279;46.388;8.116;2024-01-11T03:07:18;2.40;99.90
20242;DHT22;10279;46.388;8.116;2024-01-11T03:09:45;2.30;99.90
20242;DHT22;10279;46.388;8.116;2024-01-11T03:12:12;2.30;99.90
20242;DHT22;10279;46.388;8.116;2024-01-11T03:14:39;2.20;99.90
20242;DHT22;10279;46.388;8.116;2024-01-11T03:17:07;2.20;99.90
20242;DHT22;10279;46.388;8.116;2024-01-11T03:19:42;2.20;99.90
20242;DHT22;10279;46.388;8.116;2024-01-11T03:22:11;2.20;99.90
20242;DHT22;10279;46.388;8.116;2024-01-11T03:24:39;2.20;99.90
20242;DHT22;10279;46.388;8.116;2024-01-11T03:27:06;2.20;99.90
20242;DHT22;10279;46.388;8.116;2024-01-11T03:29:33;2.20;99.90
20242;DHT22;10279;46.388;8.116;2024-01-11T03:32:01;2.20;99.90
20242;DHT22;10279;46.388;8.116;2024-01-11T03:34:28;2.20;99.90
20242;DHT22;10279;46.388;8.116;2024-01-11T03:36:55;2.10;99.90
20242;DHT22;10279;46.388;8.116;2024-01-11T03:39:25;2.10;99.90
20242;DHT22;10279;46.388;8.116;2024-01-11T03:41:52;2.10;99.90
20242;DHT22;10279;46.388;8.116;2024-01-11T03:44:19;2.10;99.90
20242;DHT22;10279;46.388;8.116;2024-01-11T03:46:47;2.00;99.90
20242;DHT22;10279;46.388;8.116;2024-01-11T03:49:14;2.10;99.90
20242;DHT22;10279;46.388;8.116;2024-01-11T03:51:41;2.10;99.90
20242;DHT22;10279;46.388;8.116;2024-01-11T03:54:08;2.00;99.90
20242;DHT22;10279;46.388;8.116;2024-01-11T03:56:39;2.10;99.90
20242;DHT22;10279;46.388;8.116;2024-01-11T03:59:06;2.10;99.90
20242;DHT22;10279;46.388;8.116;2024-01-11T04:01:39;2.10;99.90
20242;DHT22;10279;46.388;8.116;2024-01-11T04:04:07;2.10;99.90
20242;DHT22;10279;46.388;8.116;2024-01-11T04:06:34;2.10;99.90
20242;DHT22;10279;46.388;8.116;2024-01-11T04:09:02;2.00;99.90
20242;DHT22;10279;46.388;8.116;2024-01-11T04:11:29;2.00;99.90
20242;DHT22;10279;46.388;8.116;2024-01-11T04:13:56;2.00;99.90
20242;DHT22;10279;46.388;8.116;2024-01-11T04:16:23;2.00;99.90
20242;DHT22;10279;46.388;8.116;2024-01-11T04:18:50;2.00;99.90
20242;DHT22;10279;46.388;8.116;2024-01-11T04:21:25;1.90;99.90
20242;DHT22;10279;46.388;8.116;2024-01-11T04:23:56;2.00;99.90
20242;DHT22;10279;46.388;8.116;2024-01-11T04:26:23;2.00;99.90
20242;DHT22;10279;46.388;8.116;2024-01-11T04:28:52;1.90;99.90
20242;DHT22;10279;46.388;8.116;2024-01-11T04:31:23;1.90;99.90
20242;DHT22;10279;46.388;8.116;2024-01-11T04:33:51;1.90;99.90
20242;DHT22;10279;46.388;8.116;2024-01-11T04:36:18;1.90;99.90
20242;DHT22;10279;46.388;8.116;2024-01-11T04:38:45;1.90;99.90
20242;DHT22;10279;46.388;8.116;2024-01-11T04:41:13;1.90;99.90
20242;DHT22;10279;46.388;8.116;2024-01-11T04:43:42;1.90;99.90
20242;DHT22;10279;46.388;8.116;2024-01-11T04:46:16;1.90;99.90
20242;DHT22;10279;46.388;8.116;2024-01-11T04:48:44;1.90;99.90
20242;DHT22;10279;46.388;8.116;2024-01-11T04:51:12;1.80;99.90
20242;DHT22;10279;46.388;8.116;2024-01-11T04:53:40;1.80;99.90
20242;DHT22;10279;46.388;8.116;2024-01-11T04:56:09;1.80;99.90
20242;DHT22;10279;46.388;8.116;2024-01-11T04:58:40;1.80;99.90
20242;DHT22;10279;46.388;8.116;2024-01-11T05:01:17;1.80;99.90
20242;DHT22;10279;46.388;8.116;2024-01-11T05:03:46;1.90;99.90
20242;DHT22;10279;46.388;8.116;2024-01-11T05:06:18;1.80;99.90
20242;DHT22;10279;46.388;8.116;2024-01-11T05:08:52;1.90;99.90
20242;DHT22;10279;46.388;8.116;2024-01-11T05:11:21;1.90;99.90
20242;DHT22;10279;46.388;8.116;2024-01-11T05:13:51;1.90;99.90
20242;DHT22;10279;46.388;8.116;2024-01-11T05:16:20;1.90;99.90
20242;DHT22;10279;46.388;8.116;2024-01-11T05:18:47;1.90;99.90
20242;DHT22;10279;46.388;8.116;2024-01-11T05:21:14;1.90;99.90
20242;DHT22;10279;46.388;8.116;2024-01-11T05:23:41;1.80;99.90
20242;DHT22;10279;46.388;8.116;2024-01-11T05:26:09;1.80;99.90
20242;DHT22;10279;46.388;8.116;2024-01-11T05:28:37;1.80;99.90
20242;DHT22;10279;46.388;8.116;2024-01-11T05:31:12;1.80;99.90
20242;DHT22;10279;46.388;8.116;2024-01-11T05:33:41;1.80;99.90
20242;DHT22;10279;46.388;8.116;2024-01-11T05:36:09;1.70;99.90
20242;DHT22;10279;46.388;8.116;2024-01-11T05:38:37;1.70;99.90
20242;DHT22;10279;46.388;8.116;2024-01-11T05:41:05;1.70;99.90
20242;DHT22;10279;46.388;8.116;2024-01-11T05:43:32;1.70;99.90
20242;DHT22;10279;46.388;8.116;2024-01-11T05:45:59;1.70;99.90
20242;DHT22;10279;46.388;8.116;2024-01-11T05:48:26;1.80;99.90
20242;DHT22;10279;46.388;8.116;2024-01-11T05:50:54;1.80;99.90
20242;DHT22;10279;46.388;8.116;2024-01-11T05:53:21;1.80;99.90
20242;DHT22;10279;46.388;8.116;2024-01-11T05:55:48;1.80;99.90
20242;DHT22;10279;46.388;8.116;2024-01-11T05:58:19;1.80;99.90
20242;DHT22;10279;46.388;8.116;2024-01-11T06:00:47;1.70;99.90
20242;DHT22;10279;46.388;8.116;2024-01-11T06:03:14;1.70;99.90
20242;DHT22;10279;46.388;8.116;2024-01-11T06:05:42;1.70;99.90
20242;DHT22;10279;46.388;8.116;2024-01-11T06:08:09;1.70;99.90
20242;DHT22;10279;46.388;8.116;2024-01-11T06:10:36;1.70;99.90
20242;DHT22;10279;46.388;8.116;2024-01-11T06:13:04;1.70;99.90
20242;DHT22;10279;46.388;8.116;2024-01-11T06:15:32;1.70;99.90
20242;DHT22;10279;46.388;8.116;2024-01-11T06:17:59;1.70;99.90
20242;DHT22;10279;46.388;8.116;2024-01-11T06:20:27;1.70;99.90
20242;DHT22;10279;46.388;8.116;2024-01-11T06:22:54;1.70;99.90
20242;DHT22;10279;46.388;8.116;2024-01-11T06:25:21;1.70;99.90
20242;DHT22;10279;46.388;8.116;2024-01-11T06:27:49;1.80;99.90
20242;DHT22;10279;46.388;8.116;2024-01-11T06:30:16;1.70;99.90
20242;DHT22;10279;46.388;8.116;2024-01-11T06:32:44;1.70;99.90
20242;DHT22;10279;46.388;8.116;2024-01-11T06:35:12;1.70;99.90
20242;DHT22;10279;46.388;8.116;2024-01-11T06:37:39;1.70;99.90
20242;DHT22;10279;46.388;8.116;2024-01-11T06:40:07;1.70;99.90
20242;DHT22;10279;46.388;8.116;2024-01-11T06:42:35;1.70;99.90
20242;DHT22;10279;46.388;8.116;2024-01-11T06:45:03;1.60;99.90
20242;DHT22;10279;46.388;8.116;2024-01-11T06:47:30;1.60;99.90
20242;DHT22;10279;46.388;8.116;2024-01-11T06:49:58;1.70;99.90
20242;DHT22;10279;46.388;8.116;2024-01-11T06:52:26;1.70;99.90
20242;DHT22;10279;46.388;8.116;2024-01-11T06:54:53;1.60;99.90
20242;DHT22;10279;46.388;8.116;2024-01-11T06:57:21;1.70;99.90
20242;DHT22;10279;46.388;8.116;2024-01-11T06:59:48;1.70;99.90
20242;DHT22;10279;46.388;8.116;2024-01-11T07:02:16;1.70;99.90
20242;DHT22;10279;46.388;8.116;2024-01-11T07:04:44;1.70;99.90
20242;DHT22;10279;46.388;8.116;2024-01-11T07:07:12;1.60;99.90
20242;DHT22;10279;46.388;8.116;2024-01-11T07:09:39;1.60;99.90
20242;DHT22;10279;46.388;8.116;2024-01-11T07:12:06;1.70;99.90
20242;DHT22;10279;46.388;8.116;2024-01-11T07:14:35;1.60;99.90
20242;DHT22;10279;46.388;8.116;2024-01-11T07:17:02;1.70;99.90
20242;DHT22;10279;46.388;8.116;2024-01-11T07:19:31;1.60;99.90
20242;DHT22;10279;46.388;8.116;2024-01-11T07:21:58;1.70;99.90
20242;DHT22;10279;46.388;8.116;2024-01-11T07:24:26;1.70;99.90
20242;DHT22;10279;46.388;8.116;2024-01-11T07:26:53;1.70;99.90
20242;DHT22;10279;46.388;8.116;2024-01-11T07:29:21;1.70;99.90
20242;DHT22;10279;46.388;8.116;2024-01-11T07:31:48;1.80;99.90
20242;DHT22;10279;46.388;8.116;2024-01-11T07:34:18;1.70;99.90
20242;DHT22;10279;46.388;8.116;2024-01-11T07:36:45;1.70;99.90
20242;DHT22;10279;46.388;8.116;2024-01-11T07:39:13;1.70;99.90
20242;DHT22;10279;46.388;8.116;2024-01-11T07:41:40;1.80;99.90
20242;DHT22;10279;46.388;8.116;2024-01-11T07:44:07;1.80;99.90
20242;DHT22;10279;46.388;8.116;2024-01-11T07:46:34;1.80;99.90
20242;DHT22;10279;46.388;8.116;2024-01-11T07:49:12;1.70;99.90
20242;DHT22;10279;46.388;8.116;2024-01-11T07:51:39;1.70;99.90
20242;DHT22;10279;46.388;8.116;2024-01-11T07:54:06;1.70;99.90
20242;DHT22;10279;46.388;8.116;2024-01-11T07:56:34;1.70;99.90
20242;DHT22;10279;46.388;8.116;2024-01-11T07:59:02;1.70;99.90
20242;DHT22;10279;46.388;8.116;2024-01-11T08:01:29;1.70;99.90
20242;DHT22;10279;46.388;8.116;2024-01-11T08:03:56;1.70;99.90
20242;DHT22;10279;46.388;8.116;2024-01-11T08:06:24;1.70;99.90
20242;DHT22;10279;46.388;8.116;2024-01-11T08:08:51;1.70;99.90
20242;DHT22;10279;46.388;8.116;2024-01-11T08:11:20;1.70;99.90
20242;DHT22;10279;46.388;8.116;2024-01-11T08:13:47;1.70;99.90
20242;DHT22;10279;46.388;8.116;2024-01-11T08:16:18;1.80;99.90
20242;DHT22;10279;46.388;8.116;2024-01-11T08:18:45;1.80;99.90
20242;DHT22;10279;46.388;8.116;2024-01-11T08:21:13;1.80;99.90
20242;DHT22;10279;46.388;8.116;2024-01-11T08:23:41;1.80;99.90
20242;DHT22;10279;46.388;8.116;2024-01-11T08:26:13;1.70;99.90
20242;DHT22;10279;46.388;8.116;2024-01-11T08:28:42;1.70;99.90
20242;DHT22;10279;46.388;8.116;2024-01-11T08:31:09;1.70;99.90
20242;DHT22;10279;46.388;8.116;2024-01-11T08:33:36;1.70;99.90
20242;DHT22;10279;46.388;8.116;2024-01-11T08:36:05;1.70;99.90
20242;DHT22;10279;46.388;8.116;2024-01-11T08:38:44;1.80;99.90
20242;DHT22;10279;46.388;8.116;2024-01-11T08:41:11;1.80;99.90
20242;DHT22;10279;46.388;8.116;2024-01-11T08:43:38;1.80;99.90
20242;DHT22;10279;46.388;8.116;2024-01-11T08:46:06;1.90;99.90
20242;DHT22;10279;46.388;8.116;2024-01-11T08:48:33;1.80;99.90
20242;DHT22;10279;46.388;8.116;2024-01-11T08:51:01;1.90;99.90
20242;DHT22;10279;46.388;8.116;2024-01-11T08:53:28;1.90;99.90
20242;DHT22;10279;46.388;8.116;2024-01-11T08:55:55;1.80;99.90
20242;DHT22;10279;46.388;8.116;2024-01-11T08:58:23;1.90;99.90
20242;DHT22;10279;46.388;8.116;2024-01-11T09:00:50;1.90;99.90
20242;DHT22;10279;46.388;8.116;2024-01-11T09:03:17;1.90;99.90
20242;DHT22;10279;46.388;8.116;2024-01-11T09:05:44;1.90;99.90
20242;DHT22;10279;46.388;8.116;2024-01-11T09:08:12;1.90;99.90
20242;DHT22;10279;46.388;8.116;2024-01-11T09:10:39;1.90;99.90
20242;DHT22;10279;46.388;8.116;2024-01-11T09:13:08;2.00;99.90
20242;DHT22;10279;46.388;8.116;2024-01-11T09:15:38;1.90;99.90
20242;DHT22;10279;46.388;8.116;2024-01-11T09:18:05;2.00;99.90
20242;DHT22;10279;46.388;8.116;2024-01-11T09:20:34;2.00;99.90
20242;DHT22;10279;46.388;8.116;2024-01-11T09:23:02;1.90;99.90
20242;DHT22;10279;46.388;8.116;2024-01-11T09:25:31;1.90;99.90
20242;DHT22;10279;46.388;8.116;2024-01-11T09:27:58;1.90;99.90
20242;DHT22;10279;46.388;8.116;2024-01-11T09:30:25;1.90;99.90
20242;DHT22;10279;46.388;8.116;2024-01-11T09:32:53;1.90;99.90
20242;DHT22;10279;46.388;8.116;2024-01-11T09:35:21;2.00;99.90
20242;DHT22;10279;46.388;8.116;2024-01-11T09:37:50;2.00;99.90
20242;DHT22;10279;46.388;8.116;2024-01-11T09:40:17;1.90;99.90
20242;DHT22;10279;46.388;8.116;2024-01-11T09:42:45;1.90;99.90
20242;DHT22;10279;46.388;8.116;2024-01-11T09:45:13;1.90;99.90
20242;DHT22;10279;46.388;8.116;2024-01-11T09:47:40;2.00;99.90
20242;DHT22;10279;46.388;8.116;2024-01-11T09:50:08;2.00;99.90
20242;DHT22;10279;46.388;8.116;2024-01-11T09:52:38;2.00;99.90
20242;DHT22;10279;46.388;8.116;2024-01-11T09:55:06;2.00;99.90
20242;DHT22;10279;46.388;8.116;2024-01-11T09:57:36;1.90;99.90
20242;DHT22;10279;46.388;8.116;2024-01-11T10:00:05;2.00;99.90
20242;DHT22;10279;46.388;8.116;2024-01-11T10:02:34;2.00;99.90
20242;DHT22;10279;46.388;8.116;2024-01-11T10:05:02;2.00;99.90
20242;DHT22;10279;46.388;8.116;2024-01-11T10:07:30;2.00;99.90
20242;DHT22;10279;46.388;8.116;2024-01-11T10:10:00;2.00;99.90
20242;DHT22;10279;46.388;8.116;2024-01-11T10:12:30;2.10;99.90
20242;DHT22;10279;46.388;8.116;2024-01-11T10:15:08;2.10;99.90
20242;DHT22;10279;46.388;8.116;2024-01-11T10:17:43;2.10;99.90
20242;DHT22;10279;46.388;8.116;2024-01-11T10:20:15;2.10;99.90
20242;DHT22;10279;46.388;8.116;2024-01-11T10:22:46;2.20;99.90
20242;DHT22;10279;46.388;8.116;2024-01-11T10:25:16;2.30;99.90
20242;DHT22;10279;46.388;8.116;2024-01-11T10:27:45;2.30;99.90
20242;DHT22;10279;46.388;8.116;2024-01-11T10:30:14;2.30;99.90
20242;DHT22;10279;46.388;8.116;2024-01-11T10:32:46;2.30;99.90
20242;DHT22;10279;46.388;8.116;2024-01-11T10:35:13;2.20;99.90
20242;DHT22;10279;46.388;8.116;2024-01-11T10:37:41;2.20;99.90
20242;DHT22;10279;46.388;8.116;2024-01-11T10:40:10;2.30;99.90
20242;DHT22;10279;46.388;8.116;2024-01-11T10:42:42;2.20;99.90
20242;DHT22;10279;46.388;8.116;2024-01-11T10:45:17;2.30;99.90
20242;DHT22;10279;46.388;8.116;2024-01-11T10:48:00;2.40;99.90
20242;DHT22;10279;46.388;8.116;2024-01-11T10:50:36;2.70;99.90
20242;DHT22;10279;46.388;8.116;2024-01-11T10:53:25;3.10;99.90
20242;DHT22;10279;46.388;8.116;2024-01-11T10:55:57;3.50;99.90
20242;DHT22;10279;46.388;8.116;2024-01-11T10:58:26;4.00;99.90
20242;DHT22;10279;46.388;8.116;2024-01-11T11:00:54;4.30;99.90
20242;DHT22;10279;46.388;8.116;2024-01-11T11:03:23;4.60;99.90
20242;DHT22;10279;46.388;8.116;2024-01-11T11:05:53;4.90;99.90
20242;DHT22;10279;46.388;8.116;2024-01-11T11:08:23;5.20;99.90
20242;DHT22;10279;46.388;8.116;2024-01-11T11:10:58;5.40;99.90
20242;DHT22;10279;46.388;8.116;2024-01-11T11:13:26;5.70;99.90
20242;DHT22;10279;46.388;8.116;2024-01-11T11:15:54;5.80;99.90
20242;DHT22;10279;46.388;8.116;2024-01-11T11:18:28;6.00;99.90
20242;DHT22;10279;46.388;8.116;2024-01-11T11:20:55;6.20;99.90
20242;DHT22;10279;46.388;8.116;2024-01-11T11:23:22;6.40;99.90
20242;DHT22;10279;46.388;8.116;2024-01-11T11:25:54;6.50;99.90
20242;DHT22;10279;46.388;8.116;2024-01-11T11:28:22;6.50;99.90
20242;DHT22;10279;46.388;8.116;2024-01-11T11:30:49;6.60;99.90
20242;DHT22;10279;46.388;8.116;2024-01-11T11:33:23;6.80;99.90
20242;DHT22;10279;46.388;8.116;2024-01-11T11:35:55;6.90;99.90
20242;DHT22;10279;46.388;8.116;2024-01-11T11:38:27;7.00;99.90
20242;DHT22;10279;46.388;8.116;2024-01-11T11:40:57;7.10;99.90
20242;DHT22;10279;46.388;8.116;2024-01-11T11:43:29;7.20;99.90
20242;DHT22;10279;46.388;8.116;2024-01-11T11:45:58;7.30;99.90
20242;DHT22;10279;46.388;8.116;2024-01-11T11:53:37;7.70;99.90
20242;DHT22;10279;46.388;8.116;2024-01-11T11:56:05;7.80;99.90
20242;DHT22;10279;46.388;8.116;2024-01-11T11:58:34;7.90;99.90
20242;DHT22;10279;46.388;8.116;2024-01-11T12:01:02;8.00;99.90
20242;DHT22;10279;46.388;8.116;2024-01-11T12:03:34;8.10;99.90
20242;DHT22;10279;46.388;8.116;2024-01-11T12:06:09;8.00;99.90
20242;DHT22;10279;46.388;8.116;2024-01-11T12:08:42;7.70;99.90
20242;DHT22;10279;46.388;8.116;2024-01-11T12:11:13;7.30;99.90
20242;DHT22;10279;46.388;8.116;2024-01-11T12:13:41;7.00;99.90
20242;DHT22;10279;46.388;8.116;2024-01-11T12:16:08;6.80;99.90
20242;DHT22;10279;46.388;8.116;2024-01-11T12:18:36;6.90;99.90
20242;DHT22;10279;46.388;8.116;2024-01-11T12:21:03;6.80;99.90
20242;DHT22;10279;46.388;8.116;2024-01-11T12:23:31;6.90;99.90
20242;DHT22;10279;46.388;8.116;2024-01-11T12:26:01;6.90;99.90
20242;DHT22;10279;46.388;8.116;2024-01-11T12:28:32;6.90;99.90
20242;DHT22;10279;46.388;8.116;2024-01-11T12:31:00;6.70;99.90
20242;DHT22;10279;46.388;8.116;2024-01-11T12:33:27;6.70;99.90
20242;DHT22;10279;46.388;8.116;2024-01-11T12:35:55;6.80;99.90
20242;DHT22;10279;46.388;8.116;2024-01-11T12:38:23;6.90;99.90
20242;DHT22;10279;46.388;8.116;2024-01-11T12:40:50;6.90;99.90
20242;DHT22;10279;46.388;8.116;2024-01-11T12:43:17;7.10;99.90
20242;DHT22;10279;46.388;8.116;2024-01-11T12:45:44;7.30;99.90
20242;DHT22;10279;46.388;8.116;2024-01-11T12:48:12;7.50;99.90
20242;DHT22;10279;46.388;8.116;2024-01-11T12:50:41;7.50;99.90
20242;DHT22;10279;46.388;8.116;2024-01-11T12:53:14;7.70;99.90
20242;DHT22;10279;46.388;8.116;2024-01-11T12:55:48;7.90;99.90
20242;DHT22;10279;46.388;8.116;2024-01-11T12:58:24;8.10;99.90
20242;DHT22;10279;46.388;8.116;2024-01-11T13:00:53;8.20;99.90
20242;DHT22;10279;46.388;8.116;2024-01-11T13:03:21;8.40;99.90
20242;DHT22;10279;46.388;8.116;2024-01-11T13:05:49;8.60;99.90
20242;DHT22;10279;46.388;8.116;2024-01-11T13:08:18;8.70;99.90
20242;DHT22;10279;46.388;8.116;2024-01-11T13:10:47;8.70;99.90
20242;DHT22;10279;46.388;8.116;2024-01-11T13:13:15;8.70;99.90
20242;DHT22;10279;46.388;8.116;2024-01-11T13:15:43;8.60;99.90
20242;DHT22;10279;46.388;8.116;2024-01-11T13:18:10;8.60;99.90
20242;DHT22;10279;46.388;8.116;2024-01-11T13:20:37;8.70;99.90
20242;DHT22;10279;46.388;8.116;2024-01-11T13:25:43;8.50;99.90
20242;DHT22;10279;46.388;8.116;2024-01-11T13:28:11;8.60;99.90
20242;DHT22;10279;46.388;8.116;2024-01-11T13:30:43;8.70;99.90
20242;DHT22;10279;46.388;8.116;2024-01-11T13:33:10;8.80;99.90
20242;DHT22;10279;46.388;8.116;2024-01-11T13:35:39;8.90;99.90
20242;DHT22;10279;46.388;8.116;2024-01-11T13:38:06;8.70;99.90
20242;DHT22;10279;46.388;8.116;2024-01-11T13:40:35;8.80;99.90
20242;DHT22;10279;46.388;8.116;2024-01-11T13:43:02;8.90;99.90
20242;DHT22;10279;46.388;8.116;2024-01-11T13:45:30;8.90;99.90
20242;DHT22;10279;46.388;8.116;2024-01-11T13:47:59;8.90;99.90
20242;DHT22;10279;46.388;8.116;2024-01-11T13:50:26;9.00;99.90
20242;DHT22;10279;46.388;8.116;2024-01-11T13:52:54;9.10;99.90
20242;DHT22;10279;46.388;8.116;2024-01-11T13:55:22;9.30;99.90
20242;DHT22;10279;46.388;8.116;2024-01-11T13:57:52;9.40;99.90
20242;DHT22;10279;46.388;8.116;2024-01-11T14:00:20;9.40;99.90
20242;DHT22;10279;46.388;8.116;2024-01-11T14:02:48;9.30;99.90
20242;DHT22;10279;46.388;8.116;2024-01-11T14:05:16;9.20;99.90
20242;DHT22;10279;46.388;8.116;2024-01-11T14:07:46;9.20;99.90
20242;DHT22;10279;46.388;8.116;2024-01-11T14:10:14;9.10;99.90
20242;DHT22;10279;46.388;8.116;2024-01-11T14:12:42;9.00;99.90
20242;DHT22;10279;46.388;8.116;2024-01-11T14:15:09;9.00;99.90
20242;DHT22;10279;46.388;8.116;2024-01-11T14:17:40;9.00;99.90
20242;DHT22;10279;46.388;8.116;2024-01-11T14:20:09;9.20;99.90
20242;DHT22;10279;46.388;8.116;2024-01-11T14:22:42;9.30;99.90
20242;DHT22;10279;46.388;8.116;2024-01-11T14:25:18;9.20;99.90
20242;DHT22;10279;46.388;8.116;2024-01-11T14:27:47;9.00;99.90
20242;DHT22;10279;46.388;8.116;2024-01-11T14:30:14;8.80;99.90
20242;DHT22;10279;46.388;8.116;2024-01-11T14:32:41;8.80;99.90
20242;DHT22;10279;46.388;8.116;2024-01-11T14:35:09;8.70;99.90
20242;DHT22;10279;46.388;8.116;2024-01-11T14:37:38;8.70;99.90
20242;DHT22;10279;46.388;8.116;2024-01-11T14:40:08;8.90;99.90
20242;DHT22;10279;46.388;8.116;2024-01-11T14:42:38;9.00;99.90
20242;DHT22;10279;46.388;8.116;2024-01-11T14:45:06;9.20;99.90
20242;DHT22;10279;46.388;8.116;2024-01-11T14:47:34;9.30;99.90
20242;DHT22;10279;46.388;8.116;2024-01-11T14:50:03;9.40;99.90
20242;DHT22;10279;46.388;8.116;2024-01-11T14:52:38;9.40;99.90
20242;DHT22;10279;46.388;8.116;2024-01-11T14:55:09;9.50;99.90
20242;DHT22;10279;46.388;8.116;2024-01-11T14:57:39;9.60;99.90
20242;DHT22;10279;46.388;8.116;2024-01-11T15:00:07;9.70;99.90
20242;DHT22;10279;46.388;8.116;2024-01-11T15:02:35;10.10;99.90
20242;DHT22;10279;46.388;8.116;2024-01-11T15:05:03;10.90;99.90
20242;DHT22;10279;46.388;8.116;2024-01-11T15:07:31;11.90;99.90
20242;DHT22;10279;46.388;8.116;2024-01-11T15:09:59;13.10;99.90
20242;DHT22;10279;46.388;8.116;2024-01-11T15:12:27;13.90;99.90
20242;DHT22;10279;46.388;8.116;2024-01-11T15:14:54;14.20;99.90
20242;DHT22;10279;46.388;8.116;2024-01-11T15:17:21;14.20;99.90
20242;DHT22;10279;46.388;8.116;2024-01-11T15:19:49;14.00;99.90
20242;DHT22;10279;46.388;8.116;2024-01-11T15:22:17;13.80;99.90
20242;DHT22;10279;46.388;8.116;2024-01-11T15:24:44;13.50;99.90
20242;DHT22;10279;46.388;8.116;2024-01-11T15:27:11;13.00;99.90
20242;DHT22;10279;46.388;8.116;2024-01-11T15:29:38;12.20;99.90
20242;DHT22;10279;46.388;8.116;2024-01-11T15:32:08;11.30;99.90
20242;DHT22;10279;46.388;8.116;2024-01-11T15:34:37;10.50;99.90
20242;DHT22;10279;46.388;8.116;2024-01-11T15:37:05;9.70;99.90
20242;DHT22;10279;46.388;8.116;2024-01-11T15:39:33;9.20;99.90
20242;DHT22;10279;46.388;8.116;2024-01-11T15:42:01;8.50;99.90
20242;DHT22;10279;46.388;8.116;2024-01-11T15:44:30;8.10;99.90
20242;DHT22;10279;46.388;8.116;2024-01-11T15:46:58;7.70;99.90
20242;DHT22;10279;46.388;8.116;2024-01-11T15:49:26;7.50;99.90
20242;DHT22;10279;46.388;8.116;2024-01-11T15:51:54;7.20;99.90
20242;DHT22;10279;46.388;8.116;2024-01-11T15:54:21;7.00;99.90
20242;DHT22;10279;46.388;8.116;2024-01-11T15:56:48;6.90;99.90
20242;DHT22;10279;46.388;8.116;2024-01-11T15:59:16;6.70;99.90
20242;DHT22;10279;46.388;8.116;2024-01-11T16:01:43;6.60;99.90